createdAt,value
2023-04-18T00:02:16.998Z,5.93
2023-04-18T00:07:20.677Z,6.78
2023-04-18T00:12:24.321Z,5.32
2023-04-18T00:17:29.783Z,11.25
2023-04-18T00:22:33.623Z,10.45
2023-04-18T00:27:37.324Z,7.75
2023-04-18T00:32:42.685Z,9.40
2023-04-18T00:37:46.352Z,7.95
2023-04-18T00:42:49.968Z,9.00
2023-04-18T00:47:56.635Z,7.40
2023-04-18T00:53:00.391Z,8.10
2023-04-18T00:58:04.028Z,8.30
2023-04-18T01:03:09.313Z,7.63
2023-04-18T01:08:13.397Z,8.57
2023-04-18T01:13:18.763Z,10.68
2023-04-18T01:18:24.051Z,8.20
2023-04-18T01:23:27.950Z,12.53
2023-04-18T01:28:37.133Z,8.20
2023-04-18T01:33:40.906Z,9.27
2023-04-18T01:38:44.514Z,9.13
2023-04-18T01:43:49.767Z,10.18
2023-04-18T01:48:53.446Z,9.40
2023-04-18T01:53:57.090Z,10.55
2023-04-18T01:59:02.394Z,8.05
2023-04-18T02:04:06.042Z,7.43
2023-04-18T02:09:09.733Z,9.82
2023-04-18T02:14:15.220Z,7.75
2023-04-18T02:19:18.984Z,5.65
2023-04-18T02:24:23.121Z,10.07
2023-04-18T02:29:29.404Z,8.23
2023-04-18T02:34:33.067Z,9.32
2023-04-18T02:39:36.761Z,11.15
2023-04-18T02:44:42.058Z,6.63
2023-04-18T02:49:45.761Z,8.20
2023-04-18T02:54:49.416Z,9.88
2023-04-18T02:59:54.681Z,7.75
2023-04-18T03:04:58.323Z,6.93
2023-04-18T03:10:02.025Z,8.40
2023-04-18T03:15:08.609Z,8.23
2023-04-18T03:20:12.512Z,10.63
2023-04-18T03:25:16.289Z,11.27
2023-04-18T03:30:21.807Z,8.63
2023-04-18T03:35:25.469Z,6.00
2023-04-18T03:40:29.046Z,10.70
2023-04-18T03:45:34.401Z,4.85
2023-04-18T03:50:38.030Z,6.47
2023-04-18T03:55:42.311Z,7.03
2023-04-18T04:00:47.615Z,10.73
2023-04-18T04:05:51.312Z,8.43
2023-04-18T04:10:54.993Z,8.13
2023-04-18T04:16:00.317Z,9.40
2023-04-18T04:21:05.031Z,12.30
2023-04-18T04:26:08.686Z,9.75
2023-04-18T04:31:13.982Z,6.38
2023-04-18T04:36:18.905Z,8.90
2023-04-18T04:41:22.708Z,13.63
2023-04-18T04:46:28.294Z,9.80
2023-04-18T04:51:32.101Z,9.00
2023-04-18T04:56:35.801Z,9.20
2023-04-18T05:01:41.263Z,7.38
2023-04-18T05:06:45.002Z,9.23
2023-04-18T05:11:48.669Z,8.23
2023-04-18T05:16:53.967Z,10.32
2023-04-18T05:21:57.656Z,9.13
2023-04-18T05:27:01.351Z,5.70
2023-04-18T05:32:07.009Z,8.02
2023-04-18T05:37:10.600Z,10.30
2023-04-18T05:42:14.877Z,5.95
2023-04-18T05:47:20.239Z,4.28
2023-04-18T05:52:24.040Z,3.90
2023-04-18T05:57:27.657Z,6.78
2023-04-18T06:02:32.992Z,6.95
2023-04-18T06:07:36.986Z,2.73
2023-04-18T06:12:40.641Z,2.25
2023-04-18T06:17:45.965Z,2.40
2023-04-18T06:22:49.653Z,2.67
2023-04-18T06:27:53.325Z,1.95
2023-04-18T06:32:58.636Z,3.40
2023-04-18T06:38:02.373Z,3.03
2023-04-18T06:43:06.175Z,2.00
2023-04-18T06:48:11.432Z,2.75
2023-04-18T06:53:15.716Z,2.80
2023-04-18T06:58:19.410Z,2.28
2023-04-18T07:03:24.766Z,1.35
2023-04-18T07:08:28.501Z,1.60
2023-04-18T07:13:32.144Z,3.70
2023-04-18T07:18:38.547Z,4.00
2023-04-18T07:23:42.347Z,3.90
2023-04-18T07:28:45.933Z,2.38
2023-04-18T07:33:51.164Z,3.05
2023-04-18T07:38:54.808Z,5.23
2023-04-18T07:43:58.393Z,2.67
2023-04-18T07:49:03.674Z,3.80
2023-04-18T07:54:07.406Z,3.27
2023-04-18T07:59:11.802Z,7.15
2023-04-18T08:04:17.380Z,3.42
2023-04-18T08:09:21.181Z,5.43
2023-04-18T08:14:25.551Z,3.83
2023-04-18T08:19:30.824Z,5.75
2023-04-18T08:24:34.479Z,5.87
2023-04-18T08:29:38.148Z,6.13
2023-04-18T08:34:44.407Z,5.70
2023-04-18T08:44:51.059Z,8.20
2023-04-18T08:49:56.618Z,6.30
2023-04-18T08:55:00.240Z,6.97
2023-04-18T09:00:04.040Z,3.45
2023-04-18T09:05:14.749Z,8.98
2023-04-18T09:10:27.165Z,9.95
2023-04-18T09:15:31.200Z,7.10
2023-04-18T09:20:39.478Z,5.03
2023-04-18T09:25:45.630Z,6.60
2023-04-18T09:35:54.109Z,5.32
2023-04-18T09:41:08.837Z,7.53
2023-04-18T09:46:12.617Z,8.80
2023-04-18T09:51:18.649Z,14.55
2023-04-18T09:56:26.519Z,6.45
2023-04-18T10:01:30.454Z,7.63
2023-04-18T10:06:36.440Z,8.00
2023-04-18T10:11:40.354Z,6.10
2023-04-18T10:16:45.495Z,5.38
2023-04-18T10:21:55.368Z,6.00
2023-04-18T10:26:59.501Z,7.57
2023-04-18T10:32:07.274Z,7.88
2023-04-18T10:37:12.615Z,6.93
2023-04-18T10:42:16.222Z,9.77
2023-04-18T10:47:21.986Z,7.07
2023-04-18T10:52:28.599Z,11.82
2023-04-18T10:57:39.907Z,8.32
2023-04-18T11:02:51.481Z,8.10
2023-04-18T11:07:57.118Z,9.35
2023-04-18T11:13:01.495Z,11.67
2023-04-18T11:18:06.072Z,13.75
2023-04-18T11:23:19.732Z,11.15
2023-04-18T11:28:23.898Z,8.82
2023-04-18T11:33:29.607Z,11.30
2023-04-18T11:38:34.891Z,10.30
2023-04-18T11:43:38.572Z,11.32
2023-04-18T11:48:43.562Z,10.43
2023-04-18T11:53:48.903Z,12.13
2023-04-18T11:58:52.752Z,9.23
2023-04-18T12:04:04.063Z,9.55
2023-04-18T12:09:14.008Z,6.32
2023-04-18T12:14:23.781Z,10.75
2023-04-18T12:19:28.363Z,12.07
2023-04-18T12:24:33.975Z,10.60
2023-04-18T12:29:37.689Z,11.33
2023-04-18T12:34:41.295Z,8.98
2023-04-18T12:39:46.578Z,10.05
2023-04-18T12:44:50.213Z,9.13
2023-04-18T12:49:53.817Z,13.50
2023-04-18T12:54:59.096Z,9.50
2023-04-18T13:00:02.967Z,11.60
2023-04-18T13:05:08.562Z,12.85
2023-04-18T13:10:15.313Z,12.17
2023-04-18T13:15:18.923Z,10.13
2023-04-18T13:20:22.584Z,11.55
2023-04-18T13:25:28.001Z,12.05
2023-04-18T13:30:31.627Z,9.43
2023-04-18T13:35:36.630Z,7.95
2023-04-18T13:40:41.882Z,12.52
2023-04-18T13:45:45.536Z,10.05
2023-04-18T13:50:49.142Z,9.68
2023-04-18T13:55:54.448Z,11.25
2023-04-18T14:00:58.045Z,10.55
2023-04-18T14:06:01.649Z,14.50
2023-04-18T14:11:07.092Z,10.15
2023-04-18T14:16:10.743Z,12.80
2023-04-18T14:21:14.444Z,8.85
2023-04-18T14:26:19.871Z,10.93
2023-04-18T14:31:23.477Z,8.27
2023-04-18T14:36:27.793Z,10.88
2023-04-18T14:41:33.189Z,10.25
2023-04-18T14:46:36.878Z,9.10
2023-04-18T14:51:40.496Z,10.93
2023-04-18T14:56:45.746Z,7.22
2023-04-18T15:01:49.435Z,11.45
2023-04-18T15:06:53.112Z,11.35
2023-04-18T15:11:58.409Z,7.32
2023-04-18T15:17:02.269Z,9.25
2023-04-18T15:22:05.964Z,7.85
2023-04-18T15:27:12.342Z,9.98
2023-04-18T15:32:16.029Z,11.38
2023-04-18T15:37:19.647Z,8.00
2023-04-18T15:42:24.922Z,9.35
2023-04-18T15:47:28.580Z,7.90
2023-04-18T15:52:32.257Z,9.40
2023-04-18T15:57:37.518Z,9.18
2023-04-18T16:02:41.173Z,9.70
2023-04-18T16:07:44.961Z,11.15
2023-04-18T16:12:50.194Z,9.27
2023-04-18T16:17:53.855Z,8.27
2023-04-18T16:22:57.531Z,9.02
2023-04-18T16:28:02.816Z,8.35
2023-04-18T16:33:06.554Z,9.83
2023-04-18T16:38:10.173Z,9.85
2023-04-18T16:43:15.437Z,8.32
2023-04-18T16:48:19.025Z,11.82
2023-04-18T16:53:23.249Z,10.43
2023-04-18T16:58:28.531Z,9.10
2023-04-18T17:03:32.289Z,8.88
2023-04-18T17:08:36.086Z,6.65
2023-04-18T17:13:41.361Z,7.65
2023-04-18T17:18:45.048Z,5.80
2023-04-18T17:23:48.670Z,7.70
2023-04-18T17:28:54.060Z,3.78
2023-04-18T17:33:57.756Z,5.35
2023-04-18T17:39:01.530Z,6.05
2023-04-18T17:44:07.246Z,6.28
2023-04-18T17:54:13.770Z,4.82
2023-04-18T17:59:19.102Z,8.30
2023-04-18T18:04:25.750Z,5.13
2023-04-18T18:09:30.150Z,7.38
2023-04-18T18:14:35.362Z,6.95
2023-04-18T18:19:38.995Z,7.72
2023-04-18T18:24:42.652Z,6.13
2023-04-18T18:29:47.972Z,9.13
2023-04-18T18:34:51.596Z,5.18
2023-04-18T18:39:55.841Z,4.70
2023-04-18T18:45:01.118Z,7.13
2023-04-18T18:50:05.126Z,4.65
2023-04-18T18:55:09.796Z,5.72
2023-04-18T19:00:15.750Z,3.70
2023-04-18T19:05:19.390Z,5.38
2023-04-18T19:10:22.969Z,3.70
2023-04-18T19:15:28.371Z,8.55
2023-04-18T19:25:34.947Z,4.40
2023-04-18T19:30:40.343Z,6.35
2023-04-18T19:40:47.596Z,5.88
2023-04-18T19:45:55.403Z,7.20
2023-04-18T19:50:59.114Z,9.98
2023-04-18T19:56:02.741Z,9.65
2023-04-18T20:01:08.075Z,8.30
2023-04-18T20:06:11.915Z,5.95
2023-04-18T20:11:15.581Z,8.20
2023-04-18T20:16:21.837Z,7.47
2023-04-18T20:21:25.458Z,8.90
2023-04-18T20:26:29.168Z,8.32
2023-04-18T20:31:34.449Z,6.55
2023-04-18T20:36:38.196Z,8.77
2023-04-18T20:41:41.992Z,9.85
2023-04-18T20:46:47.242Z,6.97
2023-04-18T20:51:50.846Z,6.57
2023-04-18T20:56:54.447Z,6.50
2023-04-18T21:01:59.882Z,6.57
2023-04-18T21:12:07.040Z,6.10
2023-04-18T21:17:12.416Z,7.68
2023-04-18T21:22:16.381Z,5.40
2023-04-18T21:27:20.041Z,2.95
2023-04-18T21:32:25.396Z,6.63
2023-04-18T21:37:29.061Z,6.60
2023-04-18T21:42:32.650Z,7.00
2023-04-18T21:47:38.035Z,5.20
2023-04-18T21:52:41.672Z,6.15
2023-04-18T21:57:45.299Z,4.88
2023-04-18T22:02:50.738Z,6.30
2023-04-18T22:13:03.759Z,5.47
2023-04-18T22:18:09.705Z,6.77
2023-04-18T22:23:13.386Z,5.55
2023-04-18T22:28:17.180Z,6.32
2023-04-18T22:33:22.484Z,7.97
2023-04-18T22:38:26.678Z,6.05
2023-04-18T22:43:30.304Z,7.65
2023-04-18T22:48:37.809Z,5.50
2023-04-18T22:53:41.399Z,7.07
2023-04-18T22:58:45.000Z,5.60
2023-04-18T23:03:50.411Z,6.05
2023-04-18T23:13:57.222Z,6.63
2023-04-18T23:19:02.505Z,7.40
2023-04-18T23:24:06.484Z,5.47
2023-04-18T23:29:10.147Z,6.78
2023-04-18T23:34:15.707Z,5.70
2023-04-18T23:44:22.328Z,8.75
2023-04-18T23:49:28.279Z,7.90
2023-04-18T23:54:31.860Z,7.60
2023-04-18T23:59:35.442Z,5.93
